Juan Santamaria International Airport
MROC : now visible

Airfield :











YOU CAN JOIN US ON...

 
LOGIN :

Register | Disclaimer

   EN    FR    IT 

 









Legend :    VFR   Marginal VFR   IFR   Intensive IFR   Very Intensive IFR
Visi :
Ceiling :
>= 8 km
>= 3000ft
5 to 8 km
1000 to 3000 ft
1500m to 5 km
500 to 1000 ft
800 to 1500m
200 to 500 ft
< 800m
< 200 ft
Symbols :   Thunderstorms  Fog  Heavy snow  Heavy precipitations  Wind > 20 kt






- Airport Elevation : 3021 ft
- IATA code : SJO


MROC - Juan Santamaria International

CURRENT METAR :
  • 281200Z 07006KT 050V110 CAVOK 20/15 A2994 NOSIG

EXPIRED METARs :
  • 281100Z 06008KT CAVOK 19/15 A2992 NOSIG
  • 281000Z 06007KT CAVOK 19/15 A2990 NOSIG

TAF MROC
Valid from the 28 at 12:00 until the 29 at 12:00 UTC


281100Z 2812/2912 06006KT 9999 FEW030 TX28/2818Z TN19/2910Z
BECMG 2815/2818 25008KT
TEMPO 2820/2823 TSRA FEW020CB BKN030
TEMPO 2900/2904 5000 RA BR BKN020
BECMG 2904/2907 09006KT
MHTG FIR / North America



MET'MAP, your aeronautical weather chart ! - Copyright ORBIFLY December 2007 - Disclaimer

ORBIFLY MET'MAP TEAM :

Programming & Development : Alexandra Zaïnal
Concept & original design : Baudouin d'Aumeries
Assistance for programming : Marc-Olivier Méhu
Technical & hardware support : Manuel Goepfert

Contact : metmap@orbifly.com




SOURCES & CREDITS :

   NOAA       Earth
Advisory